sensor_id;sensor_type;location;lat;lon;timestamp;P1;durP1;ratioP1;P2;durP2;ratioP2
51525;SDS011;37611;51.794;21.590;2024-03-02T00:03:24;49.40;;;32.20;;
51525;SDS011;37611;51.794;21.590;2024-03-02T00:07:26;48.70;;;33.70;;
51525;SDS011;37611;51.794;21.590;2024-03-02T00:11:28;47.10;;;35.40;;
51525;SDS011;37611;51.794;21.590;2024-03-02T00:19:32;45.20;;;34.80;;
51525;SDS011;37611;51.794;21.590;2024-03-02T00:23:33;52.90;;;36.70;;
51525;SDS011;37611;51.794;21.590;2024-03-02T00:27:36;50.80;;;33.70;;
51525;SDS011;37611;51.794;21.590;2024-03-02T00:31:38;41.60;;;30.60;;
51525;SDS011;37611;51.794;21.590;2024-03-02T00:35:43;47.50;;;34.50;;
51525;SDS011;37611;51.794;21.590;2024-03-02T00:39:48;47.20;;;33.70;;
51525;SDS011;37611;51.794;21.590;2024-03-02T00:48:02;43.20;;;33.90;;
51525;SDS011;37611;51.794;21.590;2024-03-02T00:52:06;43.30;;;30.00;;
51525;SDS011;37611;51.794;21.590;2024-03-02T00:56:09;43.10;;;31.40;;
51525;SDS011;37611;51.794;21.590;2024-03-02T01:00:12;40.90;;;32.90;;
51525;SDS011;37611;51.794;21.590;2024-03-02T01:04:16;45.80;;;35.90;;
51525;SDS011;37611;51.794;21.590;2024-03-02T01:08:18;49.00;;;32.90;;
51525;SDS011;37611;51.794;21.590;2024-03-02T01:12:21;51.70;;;38.70;;
51525;SDS011;37611;51.794;21.590;2024-03-02T01:16:23;47.30;;;33.40;;
51525;SDS011;37611;51.794;21.590;2024-03-02T01:20:25;47.80;;;33.80;;
51525;SDS011;37611;51.794;21.590;2024-03-02T01:24:27;44.10;;;35.20;;
51525;SDS011;37611;51.794;21.590;2024-03-02T01:28:28;45.30;;;34.80;;
51525;SDS011;37611;51.794;21.590;2024-03-02T01:32:30;45.60;;;34.90;;
51525;SDS011;37611;51.794;21.590;2024-03-02T01:36:32;49.20;;;32.70;;
51525;SDS011;37611;51.794;21.590;2024-03-02T01:40:35;46.80;;;34.90;;
51525;SDS011;37611;51.794;21.590;2024-03-02T01:44:37;45.00;;;33.80;;
51525;SDS011;37611;51.794;21.590;2024-03-02T01:48:39;44.80;;;35.70;;
51525;SDS011;37611;51.794;21.590;2024-03-02T01:52:41;37.90;;;25.30;;
51525;SDS011;37611;51.794;21.590;2024-03-02T01:56:43;44.00;;;34.30;;
51525;SDS011;37611;51.794;21.590;2024-03-02T02:00:46;47.00;;;36.30;;
51525;SDS011;37611;51.794;21.590;2024-03-02T02:04:49;47.70;;;37.40;;
51525;SDS011;37611;51.794;21.590;2024-03-02T02:08:51;46.00;;;36.00;;
51525;SDS011;37611;51.794;21.590;2024-03-02T02:12:53;49.70;;;35.10;;
51525;SDS011;37611;51.794;21.590;2024-03-02T02:16:55;47.70;;;34.10;;
51525;SDS011;37611;51.794;21.590;2024-03-02T02:20:56;48.40;;;35.30;;
51525;SDS011;37611;51.794;21.590;2024-03-02T02:24:58;46.10;;;34.00;;
51525;SDS011;37611;51.794;21.590;2024-03-02T02:29:00;48.60;;;34.90;;
51525;SDS011;37611;51.794;21.590;2024-03-02T02:33:02;46.40;;;36.00;;
51525;SDS011;37611;51.794;21.590;2024-03-02T02:37:04;48.20;;;34.40;;
51525;SDS011;37611;51.794;21.590;2024-03-02T02:41:06;47.60;;;33.60;;
51525;SDS011;37611;51.794;21.590;2024-03-02T02:45:08;48.40;;;36.40;;
51525;SDS011;37611;51.794;21.590;2024-03-02T02:49:10;44.50;;;34.30;;
51525;SDS011;37611;51.794;21.590;2024-03-02T02:53:12;48.70;;;35.60;;
51525;SDS011;37611;51.794;21.590;2024-03-02T02:57:14;48.90;;;37.70;;
51525;SDS011;37611;51.794;21.590;2024-03-02T03:01:16;48.00;;;33.10;;
51525;SDS011;37611;51.794;21.590;2024-03-02T03:05:21;48.40;;;34.30;;
51525;SDS011;37611;51.794;21.590;2024-03-02T03:09:22;47.60;;;34.10;;
51525;SDS011;37611;51.794;21.590;2024-03-02T03:13:24;47.40;;;33.10;;
51525;SDS011;37611;51.794;21.590;2024-03-02T03:17:26;46.60;;;31.40;;
51525;SDS011;37611;51.794;21.590;2024-03-02T03:21:29;48.60;;;34.50;;
51525;SDS011;37611;51.794;21.590;2024-03-02T03:25:31;47.40;;;33.30;;
51525;SDS011;37611;51.794;21.590;2024-03-02T03:29:32;46.10;;;32.90;;
51525;SDS011;37611;51.794;21.590;2024-03-02T03:33:34;49.80;;;33.80;;
51525;SDS011;37611;51.794;21.590;2024-03-02T03:37:36;52.90;;;34.80;;
51525;SDS011;37611;51.794;21.590;2024-03-02T03:41:38;53.30;;;37.20;;
51525;SDS011;37611;51.794;21.590;2024-03-02T03:45:42;53.70;;;36.00;;
51525;SDS011;37611;51.794;21.590;2024-03-02T03:49:44;48.90;;;33.70;;
51525;SDS011;37611;51.794;21.590;2024-03-02T03:53:45;49.50;;;34.30;;
51525;SDS011;37611;51.794;21.590;2024-03-02T03:57:47;52.60;;;37.10;;
51525;SDS011;37611;51.794;21.590;2024-03-02T04:01:49;55.40;;;36.80;;
51525;SDS011;37611;51.794;21.590;2024-03-02T04:05:51;47.90;;;33.20;;
51525;SDS011;37611;51.794;21.590;2024-03-02T04:09:53;60.90;;;46.30;;
51525;SDS011;37611;51.794;21.590;2024-03-02T04:13:54;49.30;;;36.90;;
51525;SDS011;37611;51.794;21.590;2024-03-02T04:17:56;47.90;;;30.90;;
51525;SDS011;37611;51.794;21.590;2024-03-02T04:21:58;48.90;;;29.80;;
51525;SDS011;37611;51.794;21.590;2024-03-02T04:26:00;48.40;;;31.50;;
51525;SDS011;37611;51.794;21.590;2024-03-02T04:30:03;36.10;;;22.90;;
51525;SDS011;37611;51.794;21.590;2024-03-02T04:34:06;54.40;;;39.30;;
51525;SDS011;37611;51.794;21.590;2024-03-02T04:38:08;54.30;;;34.90;;
51525;SDS011;37611;51.794;21.590;2024-03-02T04:42:10;36.40;;;24.40;;
51525;SDS011;37611;51.794;21.590;2024-03-02T04:46:12;53.30;;;36.40;;
51525;SDS011;37611;51.794;21.590;2024-03-02T04:50:14;49.60;;;34.30;;
51525;SDS011;37611;51.794;21.590;2024-03-02T04:54:15;49.80;;;36.50;;
51525;SDS011;37611;51.794;21.590;2024-03-02T04:58:17;51.30;;;37.30;;
51525;SDS011;37611;51.794;21.590;2024-03-02T05:02:19;46.40;;;32.70;;
51525;SDS011;37611;51.794;21.590;2024-03-02T05:06:21;43.90;;;32.30;;
51525;SDS011;37611;51.794;21.590;2024-03-02T05:10:23;44.70;;;31.30;;
51525;SDS011;37611;51.794;21.590;2024-03-02T05:14:25;42.30;;;30.20;;
51525;SDS011;37611;51.794;21.590;2024-03-02T05:18:27;42.50;;;28.80;;
51525;SDS011;37611;51.794;21.590;2024-03-02T05:22:32;42.50;;;29.70;;
51525;SDS011;37611;51.794;21.590;2024-03-02T05:26:35;41.50;;;28.60;;
51525;SDS011;37611;51.794;21.590;2024-03-02T05:30:37;39.20;;;28.20;;
51525;SDS011;37611;51.794;21.590;2024-03-02T05:34:39;35.30;;;25.50;;
51525;SDS011;37611;51.794;21.590;2024-03-02T05:38:41;40.40;;;28.40;;
51525;SDS011;37611;51.794;21.590;2024-03-02T05:42:43;28.40;;;20.00;;
51525;SDS011;37611;51.794;21.590;2024-03-02T05:46:44;45.40;;;31.20;;
51525;SDS011;37611;51.794;21.590;2024-03-02T05:50:47;44.30;;;32.20;;
51525;SDS011;37611;51.794;21.590;2024-03-02T05:54:49;44.20;;;31.50;;
51525;SDS011;37611;51.794;21.590;2024-03-02T05:58:51;47.50;;;33.60;;
51525;SDS011;37611;51.794;21.590;2024-03-02T06:03:11;46.30;;;30.10;;
51525;SDS011;37611;51.794;21.590;2024-03-02T06:07:13;47.20;;;33.60;;
51525;SDS011;37611;51.794;21.590;2024-03-02T06:11:15;42.60;;;31.60;;
51525;SDS011;37611;51.794;21.590;2024-03-02T06:15:16;44.20;;;29.40;;
51525;SDS011;37611;51.794;21.590;2024-03-02T06:19:18;47.00;;;33.00;;
51525;SDS011;37611;51.794;21.590;2024-03-02T06:23:20;46.50;;;32.30;;
51525;SDS011;37611;51.794;21.590;2024-03-02T06:27:22;44.50;;;31.60;;
51525;SDS011;37611;51.794;21.590;2024-03-02T06:31:24;48.70;;;33.10;;
51525;SDS011;37611;51.794;21.590;2024-03-02T06:35:26;39.40;;;25.40;;
51525;SDS011;37611;51.794;21.590;2024-03-02T06:39:28;40.50;;;30.30;;
51525;SDS011;37611;51.794;21.590;2024-03-02T06:43:30;44.10;;;29.60;;
51525;SDS011;37611;51.794;21.590;2024-03-02T06:47:32;45.60;;;31.80;;
51525;SDS011;37611;51.794;21.590;2024-03-02T06:51:34;43.30;;;30.00;;
51525;SDS011;37611;51.794;21.590;2024-03-02T06:55:36;40.50;;;29.10;;
51525;SDS011;37611;51.794;21.590;2024-03-02T06:59:38;41.70;;;26.50;;
51525;SDS011;37611;51.794;21.590;2024-03-02T07:03:40;44.00;;;29.30;;
51525;SDS011;37611;51.794;21.590;2024-03-02T07:07:42;52.20;;;31.70;;
51525;SDS011;37611;51.794;21.590;2024-03-02T07:11:43;49.90;;;35.60;;
51525;SDS011;37611;51.794;21.590;2024-03-02T07:15:45;53.20;;;36.50;;
51525;SDS011;37611;51.794;21.590;2024-03-02T07:20:07;44.40;;;28.90;;
51525;SDS011;37611;51.794;21.590;2024-03-02T07:24:10;40.50;;;24.80;;
51525;SDS011;37611;51.794;21.590;2024-03-02T07:28:14;45.00;;;27.70;;
51525;SDS011;37611;51.794;21.590;2024-03-02T07:32:16;36.20;;;22.30;;
51525;SDS011;37611;51.794;21.590;2024-03-02T07:36:18;34.40;;;23.80;;
51525;SDS011;37611;51.794;21.590;2024-03-02T07:40:20;37.60;;;26.10;;
51525;SDS011;37611;51.794;21.590;2024-03-02T07:44:22;39.70;;;24.40;;
51525;SDS011;37611;51.794;21.590;2024-03-02T07:48:25;34.80;;;22.60;;
51525;SDS011;37611;51.794;21.590;2024-03-02T07:52:27;39.30;;;27.40;;
51525;SDS011;37611;51.794;21.590;2024-03-02T07:56:29;42.60;;;30.60;;
51525;SDS011;37611;51.794;21.590;2024-03-02T08:00:31;45.90;;;27.70;;
51525;SDS011;37611;51.794;21.590;2024-03-02T08:04:33;36.10;;;25.50;;
51525;SDS011;37611;51.794;21.590;2024-03-02T08:08:35;59.30;;;39.10;;
51525;SDS011;37611;51.794;21.590;2024-03-02T08:12:37;45.10;;;25.50;;
51525;SDS011;37611;51.794;21.590;2024-03-02T08:16:39;101.50;;;50.50;;
51525;SDS011;37611;51.794;21.590;2024-03-02T08:20:41;70.80;;;36.60;;
51525;SDS011;37611;51.794;21.590;2024-03-02T08:24:43;40.90;;;23.80;;
51525;SDS011;37611;51.794;21.590;2024-03-02T08:28:45;67.30;;;39.20;;
51525;SDS011;37611;51.794;21.590;2024-03-02T08:32:47;97.70;;;51.30;;
51525;SDS011;37611;51.794;21.590;2024-03-02T08:36:49;50.60;;;31.30;;
51525;SDS011;37611;51.794;21.590;2024-03-02T08:40:51;54.20;;;36.80;;
51525;SDS011;37611;51.794;21.590;2024-03-02T08:44:53;65.40;;;49.30;;
51525;SDS011;37611;51.794;21.590;2024-03-02T08:48:55;77.20;;;54.50;;
51525;SDS011;37611;51.794;21.590;2024-03-02T08:52:57;55.00;;;35.60;;
51525;SDS011;37611;51.794;21.590;2024-03-02T08:56:58;46.10;;;33.40;;
51525;SDS011;37611;51.794;21.590;2024-03-02T09:01:01;43.90;;;29.80;;
51525;SDS011;37611;51.794;21.590;2024-03-02T09:05:03;49.30;;;31.10;;
51525;SDS011;37611;51.794;21.590;2024-03-02T09:09:06;45.90;;;31.50;;
51525;SDS011;37611;51.794;21.590;2024-03-02T09:13:08;55.30;;;33.60;;
51525;SDS011;37611;51.794;21.590;2024-03-02T09:17:10;49.60;;;29.90;;
51525;SDS011;37611;51.794;21.590;2024-03-02T09:21:13;48.80;;;33.70;;
51525;SDS011;37611;51.794;21.590;2024-03-02T09:25:16;46.00;;;30.40;;
51525;SDS011;37611;51.794;21.590;2024-03-02T09:29:18;53.70;;;37.20;;
51525;SDS011;37611;51.794;21.590;2024-03-02T09:33:22;50.80;;;34.10;;
51525;SDS011;37611;51.794;21.590;2024-03-02T09:37:23;53.90;;;38.70;;
51525;SDS011;37611;51.794;21.590;2024-03-02T09:41:25;49.40;;;35.60;;
51525;SDS011;37611;51.794;21.590;2024-03-02T09:45:27;46.30;;;34.40;;
51525;SDS011;37611;51.794;21.590;2024-03-02T09:49:31;53.20;;;34.90;;
51525;SDS011;37611;51.794;21.590;2024-03-02T09:53:33;44.40;;;30.60;;
51525;SDS011;37611;51.794;21.590;2024-03-02T09:57:36;48.70;;;32.40;;
51525;SDS011;37611;51.794;21.590;2024-03-02T10:01:38;45.70;;;32.10;;
51525;SDS011;37611;51.794;21.590;2024-03-02T10:05:39;44.40;;;31.90;;
51525;SDS011;37611;51.794;21.590;2024-03-02T10:09:42;39.80;;;29.00;;
51525;SDS011;37611;51.794;21.590;2024-03-02T10:13:45;48.40;;;34.70;;
51525;SDS011;37611;51.794;21.590;2024-03-02T10:17:47;45.00;;;32.10;;
51525;SDS011;37611;51.794;21.590;2024-03-02T10:21:52;48.20;;;33.10;;
51525;SDS011;37611;51.794;21.590;2024-03-02T10:25:55;46.10;;;31.10;;
51525;SDS011;37611;51.794;21.590;2024-03-02T10:29:57;48.60;;;29.80;;
51525;SDS011;37611;51.794;21.590;2024-03-02T10:33:59;50.50;;;35.30;;
51525;SDS011;37611;51.794;21.590;2024-03-02T10:38:01;44.70;;;33.70;;
51525;SDS011;37611;51.794;21.590;2024-03-02T10:42:06;41.40;;;29.90;;
51525;SDS011;37611;51.794;21.590;2024-03-02T10:46:08;37.70;;;28.00;;
51525;SDS011;37611;51.794;21.590;2024-03-02T10:50:11;47.00;;;33.60;;
51525;SDS011;37611;51.794;21.590;2024-03-02T10:54:13;45.50;;;33.70;;
51525;SDS011;37611;51.794;21.590;2024-03-02T10:58:15;45.20;;;34.50;;
51525;SDS011;37611;51.794;21.590;2024-03-02T11:02:18;40.10;;;30.90;;
51525;SDS011;37611;51.794;21.590;2024-03-02T11:06:23;40.00;;;30.50;;
51525;SDS011;37611;51.794;21.590;2024-03-02T11:10:29;38.60;;;29.20;;
51525;SDS011;37611;51.794;21.590;2024-03-02T11:14:37;41.20;;;29.40;;
51525;SDS011;37611;51.794;21.590;2024-03-02T11:18:45;42.80;;;32.60;;
51525;SDS011;37611;51.794;21.590;2024-03-02T11:22:48;37.60;;;30.10;;
51525;SDS011;37611;51.794;21.590;2024-03-02T11:26:50;41.00;;;32.40;;
51525;SDS011;37611;51.794;21.590;2024-03-02T11:30:53;37.40;;;25.90;;
51525;SDS011;37611;51.794;21.590;2024-03-02T11:34:55;62.00;;;37.50;;
51525;SDS011;37611;51.794;21.590;2024-03-02T11:38:57;45.80;;;32.40;;
51525;SDS011;37611;51.794;21.590;2024-03-02T11:42:59;34.50;;;25.60;;
51525;SDS011;37611;51.794;21.590;2024-03-02T11:47:02;41.10;;;28.80;;
51525;SDS011;37611;51.794;21.590;2024-03-02T11:51:07;34.60;;;27.40;;
51525;SDS011;37611;51.794;21.590;2024-03-02T11:55:09;41.60;;;30.70;;
51525;SDS011;37611;51.794;21.590;2024-03-02T11:59:14;37.80;;;29.30;;
51525;SDS011;37611;51.794;21.590;2024-03-02T12:03:16;37.70;;;28.50;;
51525;SDS011;37611;51.794;21.590;2024-03-02T12:07:19;37.80;;;29.60;;
51525;SDS011;37611;51.794;21.590;2024-03-02T12:11:23;42.30;;;31.50;;
51525;SDS011;37611;51.794;21.590;2024-03-02T12:15:31;42.20;;;26.70;;
51525;SDS011;37611;51.794;21.590;2024-03-02T12:19:35;40.90;;;28.40;;
51525;SDS011;37611;51.794;21.590;2024-03-02T12:23:37;39.80;;;28.30;;
51525;SDS011;37611;51.794;21.590;2024-03-02T12:27:39;39.60;;;31.20;;
51525;SDS011;37611;51.794;21.590;2024-03-02T12:31:42;35.60;;;27.60;;
51525;SDS011;37611;51.794;21.590;2024-03-02T12:35:46;40.00;;;29.80;;
51525;SDS011;37611;51.794;21.590;2024-03-02T12:39:49;40.90;;;31.60;;
51525;SDS011;37611;51.794;21.590;2024-03-02T12:43:51;35.10;;;27.30;;
51525;SDS011;37611;51.794;21.590;2024-03-02T12:47:53;39.90;;;29.90;;
51525;SDS011;37611;51.794;21.590;2024-03-02T12:51:55;37.80;;;27.80;;
51525;SDS011;37611;51.794;21.590;2024-03-02T12:55:59;44.20;;;32.10;;
51525;SDS011;37611;51.794;21.590;2024-03-02T13:00:04;36.80;;;29.50;;
51525;SDS011;37611;51.794;21.590;2024-03-02T13:04:10;38.30;;;29.70;;
51525;SDS011;37611;51.794;21.590;2024-03-02T13:08:12;39.30;;;29.80;;
51525;SDS011;37611;51.794;21.590;2024-03-02T13:12:17;34.30;;;22.80;;
51525;SDS011;37611;51.794;21.590;2024-03-02T13:16:20;43.30;;;31.90;;
51525;SDS011;37611;51.794;21.590;2024-03-02T13:20:22;38.80;;;28.60;;
51525;SDS011;37611;51.794;21.590;2024-03-02T13:24:24;43.50;;;31.20;;
51525;SDS011;37611;51.794;21.590;2024-03-02T13:28:29;35.40;;;24.10;;
51525;SDS011;37611;51.794;21.590;2024-03-02T13:32:31;47.20;;;34.00;;
51525;SDS011;37611;51.794;21.590;2024-03-02T13:36:34;38.30;;;29.70;;
51525;SDS011;37611;51.794;21.590;2024-03-02T13:40:35;32.90;;;24.60;;
51525;SDS011;37611;51.794;21.590;2024-03-02T13:44:37;45.80;;;32.00;;
51525;SDS011;37611;51.794;21.590;2024-03-02T13:48:39;40.00;;;29.70;;
51525;SDS011;37611;51.794;21.590;2024-03-02T13:52:41;36.60;;;29.30;;
51525;SDS011;37611;51.794;21.590;2024-03-02T13:56:43;35.10;;;28.20;;
51525;SDS011;37611;51.794;21.590;2024-03-02T14:00:45;43.30;;;25.50;;
51525;SDS011;37611;51.794;21.590;2024-03-02T14:04:48;52.90;;;38.90;;
51525;SDS011;37611;51.794;21.590;2024-03-02T14:08:51;55.00;;;36.20;;
51525;SDS011;37611;51.794;21.590;2024-03-02T14:12:53;51.90;;;36.70;;
51525;SDS011;37611;51.794;21.590;2024-03-02T14:16:56;48.20;;;32.30;;
51525;SDS011;37611;51.794;21.590;2024-03-02T14:21:02;51.80;;;33.10;;
51525;SDS011;37611;51.794;21.590;2024-03-02T14:25:05;40.00;;;29.60;;
51525;SDS011;37611;51.794;21.590;2024-03-02T14:29:08;40.10;;;30.50;;
51525;SDS011;37611;51.794;21.590;2024-03-02T14:33:10;42.30;;;31.30;;
51525;SDS011;37611;51.794;21.590;2024-03-02T14:37:13;41.70;;;32.30;;
51525;SDS011;37611;51.794;21.590;2024-03-02T14:41:15;46.80;;;32.50;;
51525;SDS011;37611;51.794;21.590;2024-03-02T14:45:17;43.80;;;33.90;;
51525;SDS011;37611;51.794;21.590;2024-03-02T14:49:19;48.30;;;35.80;;
51525;SDS011;37611;51.794;21.590;2024-03-02T14:53:20;40.30;;;28.00;;
51525;SDS011;37611;51.794;21.590;2024-03-02T14:57:23;43.90;;;31.20;;
51525;SDS011;37611;51.794;21.590;2024-03-02T15:01:25;51.50;;;35.10;;
51525;SDS011;37611;51.794;21.590;2024-03-02T15:05:27;50.70;;;32.60;;
51525;SDS011;37611;51.794;21.590;2024-03-02T15:09:28;46.00;;;30.90;;
51525;SDS011;37611;51.794;21.590;2024-03-02T15:13:30;42.20;;;30.30;;
51525;SDS011;37611;51.794;21.590;2024-03-02T15:17:32;51.90;;;35.70;;
51525;SDS011;37611;51.794;21.590;2024-03-02T15:21:34;60.90;;;43.30;;
51525;SDS011;37611;51.794;21.590;2024-03-02T15:25:36;60.70;;;40.10;;
51525;SDS011;37611;51.794;21.590;2024-03-02T15:29:38;56.50;;;40.20;;
51525;SDS011;37611;51.794;21.590;2024-03-02T15:33:41;48.90;;;34.10;;
51525;SDS011;37611;51.794;21.590;2024-03-02T15:37:43;41.60;;;33.00;;
51525;SDS011;37611;51.794;21.590;2024-03-02T15:41:45;40.70;;;29.90;;
51525;SDS011;37611;51.794;21.590;2024-03-02T15:45:47;46.80;;;35.30;;
51525;SDS011;37611;51.794;21.590;2024-03-02T15:49:49;64.20;;;41.90;;
51525;SDS011;37611;51.794;21.590;2024-03-02T15:53:51;55.70;;;36.30;;
51525;SDS011;37611;51.794;21.590;2024-03-02T15:57:53;45.10;;;34.10;;
51525;SDS011;37611;51.794;21.590;2024-03-02T16:01:55;55.20;;;41.40;;
51525;SDS011;37611;51.794;21.590;2024-03-02T16:10:44;60.90;;;40.80;;
51525;SDS011;37611;51.794;21.590;2024-03-02T16:14:46;70.20;;;47.50;;
51525;SDS011;37611;51.794;21.590;2024-03-02T16:18:48;57.10;;;41.00;;
51525;SDS011;37611;51.794;21.590;2024-03-02T16:22:50;57.70;;;35.80;;
51525;SDS011;37611;51.794;21.590;2024-03-02T16:26:51;46.00;;;28.70;;
51525;SDS011;37611;51.794;21.590;2024-03-02T16:30:53;46.40;;;28.40;;
51525;SDS011;37611;51.794;21.590;2024-03-02T16:34:55;42.20;;;31.10;;
51525;SDS011;37611;51.794;21.590;2024-03-02T16:38:57;62.50;;;44.20;;
51525;SDS011;37611;51.794;21.590;2024-03-02T16:42:59;59.20;;;41.90;;
51525;SDS011;37611;51.794;21.590;2024-03-02T16:47:01;63.20;;;43.70;;
51525;SDS011;37611;51.794;21.590;2024-03-02T16:51:03;63.70;;;45.10;;
51525;SDS011;37611;51.794;21.590;2024-03-02T16:55:05;72.40;;;43.70;;
51525;SDS011;37611;51.794;21.590;2024-03-02T16:59:08;68.90;;;44.70;;
51525;SDS011;37611;51.794;21.590;2024-03-02T17:03:10;72.60;;;54.50;;
51525;SDS011;37611;51.794;21.590;2024-03-02T17:07:12;94.50;;;66.60;;
51525;SDS011;37611;51.794;21.590;2024-03-02T17:11:14;105.50;;;77.20;;
51525;SDS011;37611;51.794;21.590;2024-03-02T17:15:15;73.20;;;55.50;;
51525;SDS011;37611;51.794;21.590;2024-03-02T17:19:17;60.60;;;41.40;;
51525;SDS011;37611;51.794;21.590;2024-03-02T17:23:19;77.90;;;49.10;;
51525;SDS011;37611;51.794;21.590;2024-03-02T17:27:21;120.70;;;68.50;;
51525;SDS011;37611;51.794;21.590;2024-03-02T17:31:23;74.20;;;44.30;;
51525;SDS011;37611;51.794;21.590;2024-03-02T17:35:25;77.80;;;47.80;;
51525;SDS011;37611;51.794;21.590;2024-03-02T17:39:27;95.50;;;55.40;;
51525;SDS011;37611;51.794;21.590;2024-03-02T17:43:29;87.60;;;54.50;;
51525;SDS011;37611;51.794;21.590;2024-03-02T17:47:31;103.90;;;60.50;;
51525;SDS011;37611;51.794;21.590;2024-03-02T17:51:32;86.20;;;49.60;;
51525;SDS011;37611;51.794;21.590;2024-03-02T17:55:35;76.80;;;49.80;;
51525;SDS011;37611;51.794;21.590;2024-03-02T17:59:38;77.50;;;52.50;;
51525;SDS011;37611;51.794;21.590;2024-03-02T18:03:40;82.80;;;57.90;;
51525;SDS011;37611;51.794;21.590;2024-03-02T18:07:42;93.60;;;52.30;;
51525;SDS011;37611;51.794;21.590;2024-03-02T18:11:44;93.40;;;53.00;;
51525;SDS011;37611;51.794;21.590;2024-03-02T18:15:46;88.20;;;54.40;;
51525;SDS011;37611;51.794;21.590;2024-03-02T18:19:52;91.80;;;58.70;;
51525;SDS011;37611;51.794;21.590;2024-03-02T18:23:54;69.90;;;48.60;;
51525;SDS011;37611;51.794;21.590;2024-03-02T18:27:56;62.30;;;46.30;;
51525;SDS011;37611;51.794;21.590;2024-03-02T18:31:58;57.10;;;39.90;;
51525;SDS011;37611;51.794;21.590;2024-03-02T18:36:01;57.70;;;42.40;;
51525;SDS011;37611;51.794;21.590;2024-03-02T18:40:05;59.90;;;44.10;;
51525;SDS011;37611;51.794;21.590;2024-03-02T18:44:07;65.00;;;46.50;;
51525;SDS011;37611;51.794;21.590;2024-03-02T18:48:09;88.40;;;59.80;;
51525;SDS011;37611;51.794;21.590;2024-03-02T18:52:11;71.90;;;48.00;;
51525;SDS011;37611;51.794;21.590;2024-03-02T18:56:13;68.80;;;42.90;;
51525;SDS011;37611;51.794;21.590;2024-03-02T19:00:15;66.20;;;45.10;;
51525;SDS011;37611;51.794;21.590;2024-03-02T19:04:17;79.50;;;57.50;;
51525;SDS011;37611;51.794;21.590;2024-03-02T19:08:20;57.90;;;43.50;;
51525;SDS011;37611;51.794;21.590;2024-03-02T19:12:22;69.60;;;46.70;;
51525;SDS011;37611;51.794;21.590;2024-03-02T19:16:25;73.00;;;50.10;;
51525;SDS011;37611;51.794;21.590;2024-03-02T19:20:26;77.70;;;52.20;;
51525;SDS011;37611;51.794;21.590;2024-03-02T19:24:28;55.50;;;38.60;;
51525;SDS011;37611;51.794;21.590;2024-03-02T19:28:30;56.40;;;42.00;;
51525;SDS011;37611;51.794;21.590;2024-03-02T19:32:32;63.30;;;41.80;;
51525;SDS011;37611;51.794;21.590;2024-03-02T19:36:34;69.60;;;43.50;;
51525;SDS011;37611;51.794;21.590;2024-03-02T19:40:36;68.10;;;46.70;;
51525;SDS011;37611;51.794;21.590;2024-03-02T19:44:37;68.00;;;49.50;;
51525;SDS011;37611;51.794;21.590;2024-03-02T19:48:42;59.60;;;42.00;;
51525;SDS011;37611;51.794;21.590;2024-03-02T19:52:44;49.70;;;37.80;;
51525;SDS011;37611;51.794;21.590;2024-03-02T19:56:46;76.00;;;63.30;;
51525;SDS011;37611;51.794;21.590;2024-03-02T20:00:48;59.00;;;47.30;;
51525;SDS011;37611;51.794;21.590;2024-03-02T20:04:50;59.20;;;43.30;;
51525;SDS011;37611;51.794;21.590;2024-03-02T20:08:52;46.10;;;34.30;;
51525;SDS011;37611;51.794;21.590;2024-03-02T20:12:54;43.80;;;31.60;;
51525;SDS011;37611;51.794;21.590;2024-03-02T20:16:55;43.90;;;31.40;;
51525;SDS011;37611;51.794;21.590;2024-03-02T20:20:58;49.70;;;34.80;;
51525;SDS011;37611;51.794;21.590;2024-03-02T20:25:00;46.50;;;32.90;;
51525;SDS011;37611;51.794;21.590;2024-03-02T20:29:02;39.70;;;27.90;;
51525;SDS011;37611;51.794;21.590;2024-03-02T20:33:05;37.80;;;26.80;;
51525;SDS011;37611;51.794;21.590;2024-03-02T20:37:06;40.00;;;28.40;;
51525;SDS011;37611;51.794;21.590;2024-03-02T20:41:18;38.60;;;28.20;;
51525;SDS011;37611;51.794;21.590;2024-03-02T20:45:21;44.00;;;29.60;;
51525;SDS011;37611;51.794;21.590;2024-03-02T20:49:23;49.40;;;29.70;;
51525;SDS011;37611;51.794;21.590;2024-03-02T20:53:29;37.40;;;28.50;;
51525;SDS011;37611;51.794;21.590;2024-03-02T20:57:31;45.20;;;27.60;;
51525;SDS011;37611;51.794;21.590;2024-03-02T21:01:33;41.90;;;28.40;;
51525;SDS011;37611;51.794;21.590;2024-03-02T21:05:35;42.00;;;28.40;;
51525;SDS011;37611;51.794;21.590;2024-03-02T21:09:37;47.00;;;28.80;;
51525;SDS011;37611;51.794;21.590;2024-03-02T21:13:39;45.80;;;28.60;;
51525;SDS011;37611;51.794;21.590;2024-03-02T21:17:40;37.70;;;26.00;;
51525;SDS011;37611;51.794;21.590;2024-03-02T21:21:43;32.00;;;23.30;;
51525;SDS011;37611;51.794;21.590;2024-03-02T21:25:45;36.90;;;24.50;;
51525;SDS011;37611;51.794;21.590;2024-03-02T21:29:46;28.20;;;21.20;;
51525;SDS011;37611;51.794;21.590;2024-03-02T21:33:48;37.30;;;23.40;;
51525;SDS011;37611;51.794;21.590;2024-03-02T21:37:50;37.50;;;24.90;;
51525;SDS011;37611;51.794;21.590;2024-03-02T21:41:52;37.10;;;24.50;;
51525;SDS011;37611;51.794;21.590;2024-03-02T21:45:54;33.60;;;24.10;;
51525;SDS011;37611;51.794;21.590;2024-03-02T21:49:55;31.00;;;22.80;;
51525;SDS011;37611;51.794;21.590;2024-03-02T21:53:57;34.10;;;24.00;;
51525;SDS011;37611;51.794;21.590;2024-03-02T22:18:44;29.60;;;21.30;;
51525;SDS011;37611;51.794;21.590;2024-03-02T22:22:46;31.20;;;20.80;;
51525;SDS011;37611;51.794;21.590;2024-03-02T22:26:47;29.80;;;21.80;;
51525;SDS011;37611;51.794;21.590;2024-03-02T22:30:49;28.10;;;19.50;;
51525;SDS011;37611;51.794;21.590;2024-03-02T22:34:51;30.80;;;20.80;;
51525;SDS011;37611;51.794;21.590;2024-03-02T22:38:53;28.30;;;19.90;;
51525;SDS011;37611;51.794;21.590;2024-03-02T22:42:55;29.30;;;21.50;;
51525;SDS011;37611;51.794;21.590;2024-03-02T22:47:00;34.10;;;20.70;;
51525;SDS011;37611;51.794;21.590;2024-03-02T22:51:03;28.20;;;20.10;;
51525;SDS011;37611;51.794;21.590;2024-03-02T22:55:10;32.40;;;21.50;;
51525;SDS011;37611;51.794;21.590;2024-03-02T22:59:13;29.10;;;20.00;;
51525;SDS011;37611;51.794;21.590;2024-03-02T23:03:18;31.70;;;20.60;;
51525;SDS011;37611;51.794;21.590;2024-03-02T23:07:21;25.10;;;17.90;;
51525;SDS011;37611;51.794;21.590;2024-03-02T23:59:49;29.00;;;20.30;;
